Clayton Center, Iowa
Current Conditions -  °F | °C
As of 7:35 AM on Saturday 20 Dec 2014 (Local Time) from KPDC Reporting Station
Overcast Overcast  
Wind Chill: 23°   Ceiling: 2300
Heat Index: 29°   Visibility: 7mi
Dew Point: 25°   Wind: 6mph
Humidity: 85%   Direction: 110°ESE
Pressure: 30.24"   Gusts: NA
Location:  42.8388°N, 91.4421°W
Report Text: KPDC 201335Z AUTO 11005KT 7SM OVC023 M02/M04 A3024 RMK AO2 T10171039
Loading
Personal Weather Stations






























Interactive Weather Map New forecast layout! Learn more

10-Day Weather Forecast

Advertisements
Track Severe Weather on mobile